Date,TemperatureHighF,TemperatureAvgF,TemperatureLowF,DewpointHighF,DewpointAvgF,DewpointLowF,HumidityHigh,HumidityAvg,HumidityLow,PressureMaxIn,PressureMinIn,WindSpeedMaxMPH,WindSpeedAvgMPH,GustSpeedMaxMPH,PrecipitationSumIn
2013-1-1,23.2,19.2,13.1,16.5,12.1,6.1,79,73,68,30.71,30.34,0,0,0,0.00
2013-1-2,27.5,22.3,12.5,20.0,15.7,5.9,79,75,66,30.71,29.98,0,0,0,0.09
2013-1-3,16.5,8.8,4.1,8.0,1.5,-3.1,75,71,68,30.28,29.67,0,0,0,0.00
2013-1-4,26.2,20.2,9.8,16.9,12.2,3.4,76,71,64,30.17,29.62,0,0,0,0.00
2013-1-5,31.6,27.3,24.4,23.1,19.7,16.6,85,73,65,30.17,30.01,2,0,2,0.00
2013-1-6,28.7,26.3,24.6,22.6,20.5,18.6,83,78,74,30.06,29.96,0,0,0,0.00
2013-1-7,34.7,28.9,25.3,29.7,24.2,20.3,86,82,81,29.97,29.06,0,0,0,0.09
2013-1-8,41.3,29.6,25.9,36.1,25.9,21.4,92,86,80,29.62,29.20,0,0,0,0.06
2013-1-9,43.3,38.2,31.4,36.1,31.3,26.9,85,76,68,29.45,28.76,0,0,0,0.05
2013-1-10,31.6,30.1,28.4,27.8,26.3,24.8,86,85,84,29.47,28.97,0,0,0,0.00
2013-1-11,34.7,24.1,5.3,26.1,15.8,-2.5,85,71,46,30.46,28.98,0,0,0,0.11
2013-1-12,23.7,11.1,4.3,10.8,2.3,-3.8,75,67,54,30.81,30.46,0,0,0,0.00
2013-1-13,20.6,8.5,-3.1,6.4,-1.2,-12.7,72,64,49,30.84,30.29,0,0,0,0.00
2013-1-14,22.6,18.3,12.2,14.8,10.7,4.0,76,72,68,30.35,29.94,0,0,0,0.00
2013-1-15,27.3,24.1,21.2,19.1,16.6,14.4,79,73,67,30.53,30.18,0,0,0,0.00
2013-1-16,33.4,24.0,12.5,22.1,16.6,6.1,79,73,62,30.61,30.21,0,0,0,0.01
2013-1-17,24.4,19.1,13.6,17.2,12.8,7.1,80,76,73,30.70,30.20,0,0,0,0.00
2013-1-18,31.3,20.0,6.1,21.0,12.6,-1.8,80,73,59,30.61,29.99,0,0,0,0.00
2013-1-19,27.7,12.7,4.3,16.4,4.3,-3.8,75,68,56,30.94,30.61,0,0,0,0.00
2013-1-20,28.0,11.7,3.5,15.6,3.0,-4.8,75,67,53,31.04,30.73,0,0,0,0.00
2013-1-21,25.5,11.9,5.2,16.4,4.0,-3.0,77,70,64,30.92,30.60,0,0,0,0.00
2013-1-22,18.3,14.3,9.7,11.6,7.4,3.1,76,73,71,30.83,30.05,0,0,0,0.00
2013-1-23,29.8,20.9,14.2,25.4,14.4,7.2,86,75,69,30.53,29.73,0,0,0,0.00
2013-1-24,30.5,26.3,23.2,22.2,19.5,16.6,80,75,68,30.26,29.92,0,0,0,0.00
2013-1-25,33.2,29.6,26.2,27.6,25.3,20.3,86,84,78,30.28,29.66,0,0,0,0.02
2013-1-26,37.2,32.3,30.0,30.9,27.7,24.9,87,83,74,30.17,29.98,0,0,0,0.21
2013-1-27,30.2,29.0,28.4,25.2,23.6,21.7,84,80,73,30.28,30.17,0,0,0,0.01
2013-1-28,32.9,29.8,29.1,25.5,23.9,21.2,83,79,72,30.25,29.85,0,0,0,0.27
2013-1-29,39.5,31.1,24.6,28.4,24.4,19.6,86,77,64,30.43,30.06,0,0,0,0.28
2013-1-30,35.9,32.3,30.2,30.1,27.7,26.5,87,83,75,30.49,30.04,0,0,0,0.05
2013-1-31,36.7,32.6,30.2,30.9,28.0,25.9,86,83,77,30.42,30.09,0,0,0,0.00
2013-2-1,37.2,33.3,31.8,31.7,28.4,27.0,85,82,77,30.72,30.20,0,0,0,0.01
2013-2-2,34.7,30.5,27.5,27.6,25.9,23.6,86,83,74,30.92,30.72,0,0,0,0.00
2013-2-3,32.7,29.9,26.9,27.5,25.7,23.6,87,84,79,30.75,30.62,0,0,0,0.00
2013-2-4,37.7,33.0,30.9,30.6,27.9,26.8,86,81,74,30.64,29.88,0,0,0,0.00
2013-2-5,42.1,33.9,28.6,33.2,28.6,24.9,87,81,70,30.30,29.65,0,0,0,0.00
2013-2-6,42.4,35.1,30.7,31.2,28.2,25.4,84,76,64,30.25,29.88,0,0,0,0.00
2013-2-7,39.4,33.1,29.6,34.6,28.8,26.0,87,84,78,30.30,28.91,0,0,0,0.02
2013-2-8,44.9,33.7,23.2,31.1,25.9,17.1,87,74,47,30.45,29.91,0,0,0,0.00
2013-2-9,38.1,26.8,19.0,28.0,20.8,13.7,86,78,63,30.71,30.38,0,0,0,0.00
2013-2-10,37.7,26.9,18.3,27.4,20.7,13.2,85,77,65,30.87,30.71,0,0,0,0.00
2013-2-11,34.7,31.5,29.1,25.4,24.2,22.8,80,74,68,30.77,30.11,0,0,0,0.00
2013-2-12,39.5,31.0,0.0,31.4,26.6,24.7,82,66,68,30.28,29.77,0,0,0,0.00
2013-2-13,48.2,35.3,21.9,33.2,26.9,16.0,86,72,55,30.31,29.84,0,0,0,0.00
2013-2-14,40.1,28.1,18.8,27.7,20.9,13.7,84,75,58,30.67,30.13,0,0,0,0.00
2013-2-15,46.7,30.9,19.9,32.1,22.7,14.8,84,72,55,30.81,30.25,0,0,0,0.00
2013-2-16,44.0,30.5,21.7,33.4,24.7,16.5,86,79,65,30.45,30.18,0,0,0,0.00
2013-2-17,44.4,31.5,24.2,32.9,23.2,15.3,88,73,32,30.46,30.25,0,0,0,0.00
2013-2-18,39.4,30.3,19.6,27.2,21.3,13.6,79,69,54,30.48,30.15,0,0,0,0.00
2013-2-19,36.3,32.3,29.1,31.9,27.4,23.1,85,82,78,30.16,29.44,0,0,0,0.14
2013-2-20,41.2,29.6,20.6,28.2,21.9,14.6,87,74,46,30.03,26.93,0,0,0,0.01
2013-2-21,34.1,27.0,19.0,27.3,21.4,13.2,85,79,74,30.14,29.68,0,0,0,0.02
2013-2-22,38.5,33.1,27.1,32.9,28.3,23.2,86,82,66,30.03,29.38,0,0,0,0.09
2013-2-23,46.7,33.8,25.0,26.1,22.4,18.5,80,64,38,30.30,29.59,0,0,0,0.00
2013-2-24,37.9,29.9,22.1,27.6,21.9,16.1,79,72,63,30.49,30.21,0,0,0,0.00
2013-2-25,41.0,34.6,27.1,33.1,27.8,22.6,84,76,68,30.36,29.56,0,0,0,0.15
2013-2-26,42.4,34.1,23.7,27.1,23.6,18.5,85,66,52,30.63,30.29,0,0,0,0.00
2013-2-27,46.4,38.6,28.6,27.9,25.3,23.2,80,59,44,30.33,29.76,0,0,0,0.01
2013-2-28,42.8,35.4,29.8,34.4,29.6,24.3,89,79,64,30.17,29.85,0,0,0,0.15
2013-3-1,51.6,42.8,34.9,43.1,37.7,30.5,91,82,72,30.17,29.84,0,0,0,0.01
2013-3-2,50.2,42.1,33.6,41.3,36.0,29.3,89,79,68,30.23,29.89,0,0,0,0.00
2013-3-3,48.2,40.9,34.7,36.4,19.2,10.4,80,44,25,30.17,29.88,0,0,0,0.00
2013-3-4,45.7,42.8,34.0,24.4,16.2,9.7,63,35,25,30.17,29.66,0,0,0,0.00
2013-3-5,45.5,41.2,32.5,28.5,19.7,14.3,76,46,28,30.03,29.66,0,0,4,0.00
2013-3-6,38.1,33.3,30.4,33.8,28.0,24.2,85,81,72,30.03,29.54,0,0,0,0.25
2013-3-7,47.6,36.0,27.3,36.5,30.4,23.4,87,80,64,30.20,29.91,0,0,0,0.09
2013-3-8,50.2,36.9,26.4,34.6,28.3,22.8,86,72,44,30.36,29.88,0,0,0,0.01
2013-3-9,52.3,36.1,26.4,32.7,25.2,21.0,86,68,33,30.82,30.36,3,0,4,0.00
2013-3-10,46.0,33.2,24.1,31.7,24.7,18.1,84,72,53,30.93,30.70,2,0,4,0.00
2013-3-11,51.8,36.4,23.9,35.0,22.4,14.6,88,62,24,30.82,30.18,4,0,6,0.01
2013-3-12,52.5,42.8,35.0,40.9,33.7,24.7,80,71,58,30.34,29.91,4,0,12,0.00
2013-3-13,55.6,49.3,41.9,41.0,38.7,34.2,81,67,56,30.20,29.99,0,0,0,0.00
2013-3-14,60.2,48.6,39.7,43.5,39.8,35.8,87,73,52,30.19,29.86,0,0,0,0.00
2013-3-15,59.3,44.4,32.5,39.8,34.1,27.7,86,69,43,30.31,30.05,3,0,4,0.00
2013-3-16,52.5,39.1,28.0,36.2,29.9,23.4,85,71,42,30.32,29.99,14,0,24,0.07
2013-3-17,48.0,37.6,25.5,32.3,21.7,12.4,84,55,25,30.39,30.00,13,1,17,0.01
2013-3-18,44.8,31.5,22.3,27.8,20.8,15.0,78,66,35,30.48,29.81,19,2,27,0.00
2013-3-19,50.0,33.3,20.1,26.3,19.1,13.5,83,60,23,30.51,30.01,8,1,17,0.00
2013-3-20,53.8,41.0,34.7,44.8,32.9,23.8,90,74,45,30.08,29.35,5,0,9,0.61
2013-3-21,44.6,36.8,28.6,27.6,19.0,9.7,68,50,26,30.11,29.75,14,2,17,0.00
2013-3-22,45.8,31.8,20.8,21.7,14.8,6.2,78,53,21,30.39,29.92,19,2,26,0.00
2013-3-23,44.6,29.8,17.2,20.8,14.8,8.9,75,55,28,30.73,30.36,13,2,17,0.00
2013-3-24,48.0,32.1,18.8,23.9,15.6,9.7,76,54,25,30.93,30.58,8,2,11,0.00
2013-3-25,52.9,34.4,18.7,24.7,16.3,11.2,73,51,23,30.74,29.95,11,2,13,0.04
2013-3-26,59.2,38.4,21.7,29.0,20.5,14.8,76,53,22,30.25,29.69,7,1,23,0.01
2013-3-27,60.4,42.2,25.7,36.9,28.9,20.9,86,63,32,30.20,29.81,9,2,11,0.00
2013-3-28,60.6,45.6,28.9,42.4,35.6,26.6,96,71,42,30.16,29.86,8,1,16,0.06
2013-3-29,62.0,43.8,28.6,43.0,34.4,26.7,96,73,33,30.34,29.99,13,2,31,0.00
2013-3-30,67.1,44.7,27.7,41.2,32.9,25.9,97,69,28,30.64,30.31,9,1,12,0.00
2013-3-31,71.4,47.9,27.8,40.8,33.1,26.6,97,64,21,30.52,30.13,8,1,9,0.00
2013-4-1,48.4,43.3,31.3,38.6,35.7,28.4,95,75,68,30.33,29.95,5,2,6,0.00
2013-4-2,48.4,48.4,48.4,38.3,38.3,38.3,68,68,68,29.96,29.96,2,2,3,0.00
2013-4-3,48.4,48.4,48.4,38.3,38.3,38.3,68,68,68,29.96,29.96,2,2,3,0.00
2013-4-4,48.4,48.4,48.4,38.3,38.3,38.3,68,68,68,29.96,29.96,2,2,3,0.00
2013-4-5,48.4,48.4,48.4,38.3,38.3,38.3,68,68,68,29.96,29.96,2,2,3,0.00
2013-4-6,48.4,48.4,48.4,38.3,38.3,38.3,68,68,68,29.96,29.96,2,2,3,0.00
2013-4-7,48.4,48.4,48.4,38.3,38.3,38.3,68,68,68,29.96,29.96,2,2,3,0.00
2013-4-8,49.8,46.0,40.8,40.1,36.5,30.6,85,70,54,30.20,29.87,11,2,15,0.77
2013-4-9,54.5,45.1,35.6,38.9,33.6,29.2,88,66,42,30.35,30.02,7,1,10,0.04
2013-4-10,58.6,46.7,36.5,47.8,40.3,35.5,96,79,61,30.10,27.81,19,2,25,0.13
2013-4-11,54.8,41.9,33.4,38.1,34.6,28.7,99,77,43,30.26,29.83,14,1,27,0.01
2013-4-12,51.6,39.5,28.4,38.1,32.0,24.8,90,76,47,30.17,29.64,17,3,25,0.08
2013-4-13,50.0,40.2,28.4,37.9,27.6,13.5,88,64,23,30.11,29.67,16,3,21,0.01
2013-4-14,47.1,35.2,24.8,35.4,27.7,20.1,88,75,49,30.33,30.07,14,3,20,0.00
2013-4-15,47.5,37.8,26.4,29.1,20.4,12.4,87,54,29,30.34,29.77,11,3,17,0.02
2013-4-16,51.6,38.1,25.7,22.6,14.7,8.0,68,41,22,30.41,30.02,21,4,29,0.04
2013-4-17,44.9,25.7,19.6,23.9,16.9,13.6,80,70,39,30.58,29.89,4,1,6,0.00
2013-4-18,60.6,49.7,27.5,41.7,32.0,22.1,86,52,32,30.16,29.80,11,4,16,0.02
2013-4-19,59.2,48.2,42.6,47.4,43.9,39.4,98,86,55,29.85,29.49,10,2,33,0.37
2013-4-20,63.1,48.6,39.2,44.7,39.1,30.4,99,74,32,30.62,29.76,13,2,17,0.02
2013-4-21,54.1,45.9,39.5,36.6,30.6,19.7,79,57,27,30.30,29.98,18,3,23,0.00
2013-4-22,57.9,41.9,25.7,32.4,24.2,13.7,90,56,21,30.52,29.93,11,2,16,0.00
2013-4-23,60.8,40.9,25.0,32.5,25.6,20.3,87,60,24,30.21,29.85,13,2,16,0.00
2013-4-24,64.9,46.3,26.2,35.0,28.6,22.3,90,57,21,30.19,29.61,12,2,29,0.00
2013-4-25,71.4,50.9,29.8,41.5,33.4,26.3,89,57,21,29.79,29.43,8,2,11,0.00
2013-4-26,75.7,55.7,35.0,45.7,39.0,31.2,95,60,20,29.90,29.66,14,3,20,0.00
2013-4-27,69.1,55.0,43.1,43.1,37.1,28.8,78,54,23,29.95,29.75,21,4,28,0.00
2013-4-28,62.8,49.3,32.0,42.4,32.5,25.5,94,58,25,30.07,29.73,19,5,26,0.01
2013-4-29,53.9,46.9,34.1,37.4,23.4,10.4,72,42,22,29.76,29.42,21,6,27,0.05
2013-4-30,53.4,38.3,23.5,29.5,22.0,14.0,85,55,22,30.13,29.68,21,2,24,0.01
2013-5-1,61.1,41.6,21.0,29.3,22.0,13.9,87,53,20,30.42,30.08,11,2,32,0.01
2013-5-2,37.0,33.6,33.6,24.2,24.2,23.5,68,68,66,30.33,30.29,2,0,4,0.00
2013-5-3,73.0,53.3,33.6,42.9,33.6,24.2,74,51,23,30.33,29.71,18,2,23,0.06
2013-5-4,75.2,58.4,39.7,42.7,35.3,24.3,89,50,18,30.22,29.85,13,3,21,0.00
2013-5-5,81.1,58.2,34.1,40.1,32.9,24.1,89,49,13,30.08,29.67,11,2,14,0.00
2013-5-6,84.2,60.4,35.0,50.2,38.8,31.0,91,53,17,29.91,29.25,9,2,17,0.00
2013-5-7,85.8,62.7,39.0,53.1,43.2,36.6,95,56,22,29.63,29.21,9,2,11,0.00
2013-5-8,87.1,64.8,42.2,56.5,46.8,40.1,93,59,24,29.72,29.33,7,1,11,0.00
2013-5-9,88.1,65.4,43.1,52.0,44.2,32.0,97,56,14,29.82,29.35,8,1,12,0.04
2013-5-10,87.1,65.0,42.1,52.1,45.2,35.1,94,56,17,29.91,29.47,11,2,13,0.00
2013-5-11,85.8,65.7,49.4,58.2,48.0,42.3,85,58,23,29.77,29.51,11,1,16,0.00
2013-5-12,77.7,63.4,50.5,57.0,51.4,46.2,89,67,39,29.69,29.56,14,2,21,0.00
2013-5-13,64.9,56.9,44.4,53.7,49.3,38.7,97,76,56,29.80,29.55,22,4,32,0.26
2013-5-14,63.7,49.1,35.4,39.9,35.6,30.6,98,64,32,30.00,29.69,10,2,13,0.00
2013-5-15,68.2,50.8,32.2,44.7,36.5,27.7,99,64,25,29.95,29.53,7,1,10,0.02
2013-5-16,65.3,57.7,48.0,49.5,45.6,42.7,96,67,48,29.74,29.55,8,2,11,0.05
2013-5-17,70.5,60.0,41.2,50.9,46.4,40.6,99,63,37,29.71,29.40,11,2,21,0.02
2013-5-18,61.5,54.3,50.2,51.0,47.4,43.9,98,79,54,30.01,29.69,12,3,15,0.13
2013-5-19,68.9,55.5,46.4,52.2,47.7,43.5,97,77,43,30.17,29.99,12,2,17,0.01
2013-5-20,72.1,56.0,40.3,54.1,45.8,40.0,99,73,38,30.22,29.52,13,2,17,0.06
2013-5-21,75.4,52.1,40.1,55.0,45.4,39.8,99,80,38,29.54,29.11,20,2,32,0.43
2013-5-22,48.0,42.7,35.6,42.5,39.6,34.6,99,89,71,29.87,29.49,11,2,17,0.18
2013-5-23,60.4,46.1,31.6,42.7,36.1,30.3,99,72,38,29.97,29.62,8,2,11,0.02
2013-5-24,59.2,45.9,30.2,44.3,37.8,28.9,99,75,52,29.84,29.59,14,3,21,0.00
2013-5-25,60.8,47.2,32.9,50.4,40.6,31.1,99,79,52,29.89,29.73,9,1,14,0.02
2013-5-26,71.4,53.7,33.2,48.5,40.3,31.7,99,66,31,29.90,29.58,9,1,11,0.00
2013-5-27,66.5,55.9,49.1,49.7,46.7,40.5,94,73,41,29.72,29.51,13,2,16,0.04
2013-5-28,64.6,55.7,49.1,51.6,48.4,45.2,99,78,55,29.60,29.45,17,2,20,0.04
2013-5-29,65.8,53.6,45.3,50.6,46.9,42.9,97,80,46,29.57,29.28,13,2,21,0.06
2013-5-30,61.5,51.9,45.7,47.9,44.7,41.6,93,77,51,29.86,29.55,12,3,15,0.04
2013-5-31,68.3,53.7,38.5,47.1,41.8,36.9,99,69,33,30.03,29.82,13,2,34,0.01
2013-6-1,71.2,54.3,35.9,48.4,41.6,35.2,99,68,31,30.06,29.69,11,1,34,0.00
2013-6-2,63.7,53.5,43.7,51.8,47.4,40.5,95,81,55,29.81,29.67,10,2,14,0.28
2013-6-3,72.8,54.7,41.0,51.3,46.1,40.2,99,77,38,29.85,29.57,14,3,19,0.01
2013-6-4,78.2,59.7,39.5,53.0,45.4,39.3,99,65,28,29.97,29.55,8,2,10,0.01
2013-6-5,82.4,63.8,42.8,55.2,48.6,41.4,97,63,27,29.81,29.37,14,2,17,0.00
2013-6-6,85.4,67.6,50.2,55.6,50.3,43.5,93,60,24,29.68,29.28,9,1,24,0.13
2013-6-7,84.4,66.5,50.9,53.5,47.3,34.8,91,55,21,29.54,29.24,14,2,24,0.04
2013-6-8,80.6,61.9,40.4,47.7,41.2,35.0,85,52,21,29.80,29.44,11,3,15,0.00
2013-6-9,77.7,60.4,41.3,48.3,39.7,24.2,95,54,18,29.74,29.49,9,2,13,0.00
2013-6-10,78.1,58.4,35.6,47.2,38.0,29.0,92,54,19,29.78,29.27,9,2,14,0.09
2013-6-11,72.8,57.3,37.9,49.4,41.5,34.3,96,60,26,29.60,29.36,17,4,21,0.00
2013-6-12,71.2,55.6,37.6,44.3,37.9,30.8,88,56,25,29.82,29.54,16,2,17,0.02
2013-6-13,67.8,52.9,35.2,46.1,41.1,32.3,97,66,39,29.86,29.63,13,2,19,0.00
2013-6-14,58.8,58.8,58.8,45.0,45.0,45.0,60,60,60,29.84,29.84,2,2,6,0.00
2013-6-15,58.8,58.8,58.8,45.0,45.0,45.0,60,60,60,29.84,29.84,2,2,6,0.00
2013-6-16,58.8,58.8,58.8,45.0,45.0,45.0,60,60,60,29.84,29.84,2,2,6,0.00
2013-6-17,58.8,58.8,58.8,45.0,45.0,45.0,60,60,60,29.84,29.84,2,2,6,0.00
2013-6-18,58.8,58.8,58.8,45.0,45.0,45.0,60,60,60,29.84,29.84,2,2,6,0.00
2013-6-19,59.2,57.5,53.8,54.6,49.3,45.0,97,75,60,29.98,29.84,9,2,13,0.38
2013-6-20,54.3,52.3,50.5,52.9,51.5,50.0,98,97,95,30.02,29.87,9,2,11,0.45
2013-6-21,65.3,58.7,50.2,52.3,49.4,45.9,93,72,55,29.90,29.77,6,1,8,0.24
2013-6-22,69.6,56.3,43.5,55.6,49.5,42.7,99,80,51,29.91,29.60,8,1,10,0.00
2013-6-23,76.3,62.0,45.3,57.8,51.9,45.0,99,73,41,29.73,29.17,10,2,18,0.00
2013-6-24,68.9,60.2,55.4,59.6,56.9,53.0,99,89,67,29.44,29.22,12,0,18,0.53
2013-6-25,69.1,59.9,53.0,58.3,54.2,51.2,99,83,57,29.61,29.42,15,0,20,0.08
2013-6-26,74.1,62.0,51.1,56.7,52.9,50.3,98,74,49,29.77,29.55,10,1,17,0.00
2013-6-27,76.1,61.9,48.5,60.5,54.6,48.2,99,79,45,29.98,29.72,7,1,9,0.00
2013-6-28,88.3,69.5,49.4,64.9,56.3,49.0,99,68,32,30.04,29.46,4,0,8,0.00
2013-6-29,83.5,66.9,55.0,67.4,60.9,54.0,98,82,53,29.77,29.48,11,1,20,0.05
2013-6-30,93.4,73.4,53.6,65.9,59.2,51.3,99,67,25,29.75,29.31,4,0,15,0.01
2013-7-1,99.1,77.7,55.6,71.3,61.8,54.4,96,64,28,29.66,29.23,9,1,10,0.00
2013-7-2,98.2,79.1,59.3,70.9,64.3,57.8,96,65,29,29.55,29.14,9,1,12,0.00
2013-7-3,91.2,73.8,58.1,62.2,55.0,37.0,94,59,15,29.52,29.18,10,2,16,0.00
2013-7-4,86.0,68.5,49.1,57.7,51.2,45.7,91,58,27,29.45,29.17,12,3,20,0.00
2013-7-5,81.3,65.5,48.5,56.5,51.4,45.9,92,64,34,29.56,29.21,16,3,21,0.00
2013-7-6,84.5,67.5,52.7,57.1,50.1,40.0,92,60,24,29.53,29.27,13,2,15,0.00
2013-7-7,87.8,68.9,46.9,58.7,48.5,43.5,90,54,23,29.53,29.20,11,2,18,0.00
2013-7-8,80.2,68.3,54.3,58.1,52.4,46.5,82,59,32,29.58,29.32,19,5,44,0.26
2013-7-9,87.8,68.1,46.4,59.1,51.5,43.9,98,62,24,29.87,29.38,10,2,30,0.00
2013-7-10,78.6,69.0,48.7,57.3,54.5,47.3,96,63,47,29.67,29.42,5,2,7,0.00
2013-7-11,78.6,78.6,78.6,57.3,57.3,57.3,48,48,48,29.44,29.44,4,4,6,0.00
2013-7-12,78.6,78.6,78.6,57.3,57.3,57.3,48,48,48,29.44,29.44,4,4,6,0.00
2013-7-13,78.6,78.6,78.6,57.3,57.3,57.3,48,48,48,29.44,29.44,4,4,6,0.00
2013-7-14,91.4,80.5,59.3,57.3,54.3,46.1,72,43,23,29.90,29.44,11,3,16,0.00
2013-7-15,88.1,72.0,52.1,53.9,48.3,39.3,83,48,21,30.01,29.69,13,4,19,0.00
2013-7-16,96.4,76.0,54.3,63.4,55.0,48.1,81,52,24,30.06,29.56,10,4,16,0.00
2013-7-17,94.8,79.4,62.9,66.9,60.5,56.5,84,55,29,29.89,29.60,11,3,20,0.00
2013-7-18,96.2,79.6,60.8,64.5,60.5,52.7,89,57,25,30.03,29.65,9,3,11,0.00
2013-7-19,99.3,78.9,57.4,65.8,58.9,52.4,94,57,24,29.91,29.55,8,1,10,0.00
2013-7-20,69.1,57.6,53.8,56.6,54.6,51.7,94,90,73,29.78,29.60,4,0,4,0.00
2013-7-21,57.2,57.2,57.2,54.9,54.9,54.9,92,92,92,29.78,29.78,0,0,2,0.00
2013-7-22,57.2,57.2,57.2,54.9,54.9,54.9,92,92,92,29.78,29.78,0,0,2,0.00
2013-7-23,57.2,57.2,57.2,54.9,54.9,54.9,92,92,92,29.78,29.78,0,0,2,0.00
2013-7-24,57.2,57.2,57.2,54.9,54.9,54.9,92,92,92,29.78,29.78,0,0,2,0.00
2013-7-25,95.2,71.2,57.2,56.4,52.6,36.1,92,62,13,29.88,29.70,11,1,17,0.00
2013-7-26,95.2,70.9,45.8,52.8,44.1,34.4,87,47,12,30.17,29.67,11,2,14,0.00
2013-7-27,88.3,68.1,45.3,49.7,42.5,32.9,82,45,14,29.97,29.63,10,2,15,0.00
2013-7-28,61.1,53.7,43.9,43.9,42.5,38.4,84,66,59,29.90,29.68,3,1,8,0.00
2013-7-29,56.3,56.3,56.3,43.4,43.4,43.4,62,62,62,29.87,29.87,1,1,4,0.00
2013-7-30,87.4,62.5,56.3,52.7,44.9,42.4,66,55,21,30.02,29.87,6,1,8,0.00
2013-7-31,89.0,68.8,46.7,52.7,47.0,42.3,85,51,21,30.35,29.86,17,2,22,0.00
2013-8-1,75.0,63.4,51.1,60.2,53.6,46.0,97,72,46,30.10,29.90,9,2,13,0.12
2013-8-2,64.7,60.1,58.3,60.4,58.5,57.0,99,95,81,30.22,29.98,8,1,11,0.24
2013-8-3,78.4,65.7,57.0,60.0,57.0,53.6,99,76,45,31.56,30.01,8,1,11,0.00
2013-8-4,84.4,66.3,49.6,59.7,55.1,49.3,99,72,38,30.22,29.90,18,2,24,0.00
2013-8-5,87.1,68.7,51.8,60.2,54.8,49.7,97,66,30,30.23,29.78,11,2,17,0.00
2013-8-6,89.4,73.1,49.4,59.3,52.9,48.9,98,57,28,30.20,29.80,9,2,12,0.00
2013-8-7,91.9,81.6,57.7,59.6,53.1,49.2,86,41,24,29.92,29.47,6,2,12,0.00
2013-8-8,92.5,71.2,48.9,57.0,51.4,37.6,95,57,15,29.97,29.55,11,1,14,0.00
2013-8-9,72.3,72.3,72.3,55.8,55.8,55.8,56,56,56,29.56,29.56,1,1,3,0.00
2013-8-10,93.2,75.4,63.1,57.2,54.7,46.5,68,50,23,29.98,29.56,10,1,13,0.01
2013-8-11,89.2,74.1,61.7,60.7,56.5,48.1,91,58,27,30.17,29.87,16,2,19,0.07
2013-8-12,89.9,72.2,53.8,60.4,55.8,51.1,97,62,27,30.28,29.88,10,2,31,0.00
2013-8-13,89.9,70.4,50.9,58.8,52.8,44.6,95,60,22,30.36,29.96,11,2,14,0.00
2013-8-14,92.3,74.4,48.7,59.3,51.8,46.8,94,53,25,30.35,29.96,7,3,13,0.00
2013-8-15,90.8,90.8,90.8,52.3,52.3,52.3,27,27,27,29.96,29.96,5,5,8,0.00
2013-8-17,84.9,75.9,56.8,58.0,51.0,46.1,76,44,27,29.90,29.77,13,3,16,0.00
2013-8-18,85.6,66.1,45.7,54.3,48.0,43.2,95,58,23,30.11,29.84,12,2,36,0.00
2013-8-19,79.3,68.7,47.5,53.2,49.7,44.1,90,55,38,30.13,29.88,7,1,11,0.00
2013-8-20,83.8,76.7,52.9,51.5,48.1,37.6,64,38,20,29.98,29.82,8,2,10,0.00
2013-8-21,86.9,64.8,44.0,50.8,41.1,32.9,81,49,16,30.27,29.80,7,2,10,0.00
2013-8-22,88.0,65.3,41.5,59.3,43.9,35.3,84,51,16,30.16,29.72,8,1,10,0.00
2013-8-23,81.5,66.6,56.6,58.1,52.7,43.5,80,62,41,29.94,29.70,12,1,15,0.01
2013-8-24,83.1,64.0,47.3,56.6,51.2,46.7,99,68,32,31.31,29.70,8,1,22,0.00
2013-8-25,84.0,68.0,55.7,56.6,52.7,48.6,84,61,31,30.02,29.69,8,2,11,0.00
2013-8-26,85.8,74.7,58.3,64.4,59.2,54.1,86,61,39,29.91,29.57,9,2,12,1.00
2013-8-27,90.3,66.7,50.7,61.4,55.2,49.7,99,73,30,29.93,29.52,10,1,15,0.00
2013-8-28,91.6,77.1,60.1,62.7,59.4,55.5,86,57,33,29.91,29.65,9,2,11,0.00
2013-8-29,88.9,70.9,55.2,64.8,58.7,53.5,96,69,35,29.89,29.64,17,2,21,0.00
2013-8-30,88.1,72.2,56.6,62.4,56.0,49.3,96,62,28,30.02,29.72,11,2,17,0.00
2013-8-31,91.7,68.8,47.6,58.0,51.1,46.3,98,60,23,30.06,29.69,8,1,11,0.00
2013-9-1,100.6,73.0,47.5,58.4,51.2,41.9,91,54,14,29.91,29.51,11,2,16,0.00
2013-9-2,91.6,71.5,54.5,64.6,58.0,50.7,89,65,35,29.84,29.59,8,1,14,0.00
2013-9-3,93.4,74.8,60.1,67.0,62.6,58.1,95,69,36,29.88,29.57,12,2,16,0.00
2013-9-4,94.6,76.6,59.0,67.3,62.8,57.9,97,67,34,29.87,29.34,10,2,15,0.00
2013-9-5,88.3,76.0,68.2,70.2,66.7,60.8,97,74,47,29.76,27.89,10,1,14,0.04
2013-9-6,74.8,68.5,63.1,68.9,64.1,60.6,98,86,64,29.89,29.47,11,2,15,0.31
2013-9-7,69.4,64.4,55.9,65.2,62.2,55.7,99,93,79,30.00,29.87,4,0,24,0.11
2013-9-8,81.8,66.0,53.6,64.4,59.3,53.3,99,81,49,30.06,29.79,4,0,5,0.01
2013-9-9,62.2,56.5,53.6,59.4,55.9,53.1,99,98,95,29.98,29.82,2,0,2,0.00
2013-9-10,87.8,67.9,54.1,60.7,54.8,48.6,98,69,28,30.03,29.54,9,1,11,0.01
2013-9-11,92.3,68.7,48.0,58.8,51.6,46.1,95,61,26,30.02,29.54,9,2,12,0.04
2013-9-12,94.5,70.7,49.8,61.3,53.4,47.6,93,61,25,29.94,29.33,8,2,11,0.00
2013-9-13,94.7,69.5,50.1,60.0,53.3,49.0,97,63,23,29.76,29.31,8,1,11,0.00
2013-9-14,92.4,69.5,51.0,62.6,52.8,48.1,93,60,26,29.82,29.50,6,1,8,0.00
2013-9-15,85.5,68.7,50.6,60.4,53.4,46.6,89,62,33,29.81,29.47,21,2,27,0.06
2013-9-16,72.0,62.8,53.7,60.7,57.7,52.0,99,84,62,29.80,29.58,14,2,20,0.01
2013-9-17,72.8,57.7,46.5,58.1,51.5,46.2,99,83,42,29.91,29.42,12,2,29,0.41
2013-9-18,69.7,56.0,43.2,54.5,49.6,42.7,98,82,43,29.91,29.55,8,1,13,0.01
2013-9-19,72.2,52.4,38.4,51.4,43.5,38.1,99,77,34,30.20,29.80,8,1,13,0.02
2013-9-20,80.0,56.1,36.6,53.0,43.8,36.3,99,70,25,29.95,29.36,6,1,11,0.01
2013-9-21,69.9,57.1,47.2,52.2,48.0,43.5,91,73,46,29.62,29.39,8,2,12,0.00
2013-9-22,63.0,52.4,41.3,51.5,46.5,40.7,98,81,55,29.74,29.59,16,3,25,0.02
2013-9-23,61.2,54.5,47.2,48.4,46.6,44.6,95,76,57,29.91,29.70,11,3,15,0.01
2013-9-24,62.7,52.1,46.3,49.2,45.8,42.5,92,80,51,29.86,29.59,9,1,36,0.04
2013-9-25,56.5,50.5,39.1,48.3,45.9,38.7,99,84,70,29.90,29.65,8,1,23,0.01
2013-9-26,67.1,53.6,45.9,47.1,42.1,33.6,88,68,31,30.01,29.82,8,0,9,0.01
2013-9-27,55.0,45.9,32.4,45.5,39.8,31.4,99,80,55,30.09,29.85,12,2,42,0.04
2013-9-28,58.3,53.7,49.5,56.1,51.2,45.3,99,91,81,30.06,29.63,6,0,14,1.22
2013-9-29,57.7,52.7,48.6,54.7,47.1,44.3,96,81,66,29.89,29.62,0,0,0,0.22
2013-9-30,60.1,51.4,45.3,50.7,44.2,38.5,99,77,49,29.93,29.61,0,0,0,0.21
2013-10-1,57.4,46.6,36.3,43.8,40.0,32.8,98,79,55,30.14,29.85,0,0,1,0.04
2013-10-2,51.6,42.7,34.7,42.0,38.6,33.4,99,86,64,30.32,27.90,0,0,0,0.02
2013-10-3,63.9,46.6,34.3,42.4,36.9,30.8,95,74,30,30.43,30.14,3,0,5,0.02
2013-10-4,64.4,42.9,28.0,41.9,34.1,26.3,99,76,33,30.63,30.36,4,0,11,0.01
2013-10-5,65.5,46.2,32.7,43.1,36.4,30.9,98,73,35,30.75,30.48,2,0,6,0.00
2013-10-6,71.1,46.0,29.3,45.7,37.4,28.6,99,77,32,30.60,30.19,2,0,35,0.00
2013-10-7,66.0,48.9,34.0,45.7,37.9,32.7,99,70,34,30.25,29.89,9,1,37,0.00
2013-10-8,55.0,47.3,36.0,44.0,40.3,33.7,96,77,58,30.14,29.81,8,2,14,0.05
2013-10-9,61.9,43.8,31.6,44.6,36.6,30.6,96,79,42,30.22,29.71,3,0,4,0.11
2013-10-10,45.9,45.9,45.9,41.3,41.3,41.3,84,84,84,29.72,29.72,0,0,0,0.00
2013-10-11,45.9,45.9,45.9,41.3,41.3,41.3,84,84,84,29.72,29.72,0,0,0,0.00
2013-10-12,45.9,45.9,45.9,41.3,41.3,41.3,84,84,84,29.72,29.72,0,0,0,0.00
2013-10-13,45.9,45.9,45.9,41.3,41.3,41.3,84,84,84,29.72,29.72,0,0,0,0.00
2013-10-14,62.1,47.4,30.6,41.3,35.9,27.4,89,68,30,30.08,29.72,4,0,7,0.12
2013-10-15,61.5,39.7,23.7,38.6,30.7,21.0,95,73,37,30.21,29.80,4,0,13,0.12
2013-10-16,65.3,52.3,33.1,43.5,37.4,30.6,97,62,38,29.86,29.61,5,0,8,0.00
2013-10-17,64.6,57.7,32.5,39.3,37.1,29.5,89,49,36,30.04,29.61,8,0,10,0.15
2013-10-18,62.6,39.8,27.5,42.6,33.8,24.9,99,81,46,30.21,29.89,4,0,8,0.01
2013-10-19,62.6,40.8,29.3,44.5,35.6,28.1,99,84,46,30.11,29.95,3,0,5,0.00
2013-10-20,67.8,43.7,30.2,46.4,37.9,29.0,99,83,45,30.15,29.99,4,0,14,0.00
2013-10-21,69.3,44.8,32.5,48.0,39.3,31.3,99,84,44,30.16,29.81,2,0,7,0.02
2013-10-22,67.5,43.9,34.7,49.6,40.0,33.4,99,88,49,30.09,29.80,2,0,4,0.01
2013-10-23,65.3,43.7,34.3,49.7,40.4,33.2,99,90,57,30.04,29.76,2,0,4,0.01
2013-10-24,63.0,42.9,34.5,49.1,40.0,33.5,99,90,58,30.01,29.77,3,0,8,0.01
2013-10-25,56.7,41.3,34.2,49.4,39.2,32.6,99,93,72,30.29,29.95,0,0,7,0.01
2013-10-26,34.2,34.2,34.2,32.6,32.6,32.6,94,94,94,30.29,30.29,0,0,0,0.00
2013-10-27,34.2,34.2,34.2,32.6,32.6,32.6,94,94,94,30.29,30.29,0,0,0,0.00
2013-10-28,61.0,39.6,29.3,32.6,24.3,15.9,94,61,25,30.29,29.77,12,1,15,0.07
2013-10-29,53.6,34.5,20.8,26.8,20.9,15.1,80,60,29,30.09,29.75,4,1,8,0.02
2013-10-30,49.6,32.3,20.3,29.9,23.1,16.0,83,70,43,30.14,29.83,4,0,4,0.00
2013-10-31,56.7,40.0,29.1,37.6,31.0,24.9,86,71,48,30.15,29.83,4,0,4,0.00
2013-11-1,50.7,37.2,26.4,40.1,32.3,22.4,97,83,65,30.34,30.06,3,0,9,0.01
2013-11-2,50.4,42.3,36.1,47.1,38.3,32.7,97,86,65,30.08,29.73,0,0,0,0.38
2013-11-3,46.4,38.5,28.9,35.7,31.2,25.3,88,76,48,30.30,29.94,0,0,0,0.00
2013-11-4,42.4,32.7,25.2,31.8,26.7,21.0,89,79,61,30.38,29.90,0,0,0,0.00
2013-11-5,36.0,31.9,27.1,31.4,28.0,22.1,90,85,81,30.28,29.52,0,0,0,0.11
2013-11-6,39.2,37.1,33.8,34.5,32.7,31.2,91,84,79,30.14,29.79,0,0,0,0.01
2013-11-7,42.1,38.8,35.1,39.2,34.5,32.4,95,85,79,29.81,29.18,0,0,0,0.47
2013-11-8,50.9,41.8,32.4,40.8,37.6,28.9,94,85,66,29.89,29.36,0,0,0,0.01
2013-11-9,44.8,38.9,33.3,37.7,35.1,30.4,96,86,73,30.07,29.89,0,0,0,0.00
2013-11-10,40.6,40.6,40.6,37.4,37.4,37.4,88,88,88,30.00,30.00,0,0,0,0.00
2013-11-11,40.6,40.6,40.6,37.4,37.4,37.4,88,88,88,30.00,30.00,0,0,0,0.00
2013-11-12,40.6,40.6,40.6,37.4,37.4,37.4,88,88,88,30.00,30.00,0,0,0,0.00
2013-11-13,51.3,44.4,40.6,42.8,39.6,37.4,91,83,71,30.00,29.60,0,0,0,0.18
2013-11-14,51.6,42.1,34.5,42.6,37.5,30.5,92,84,65,30.06,29.75,0,0,0,0.00
2013-11-15,41.0,39.0,35.1,37.3,34.8,31.3,91,85,77,30.06,29.42,0,0,0,0.58
2013-11-16,48.0,39.9,34.5,39.7,34.5,26.7,90,82,46,29.96,29.43,0,0,0,0.01
2013-11-17,45.0,36.3,27.7,39.7,32.2,23.5,92,85,69,30.29,29.85,0,0,0,0.05
2013-11-18,46.4,44.9,43.9,42.9,39.5,37.5,88,81,74,30.13,29.58,0,0,0,0.18
2013-11-19,57.0,48.6,38.1,46.2,36.3,11.6,87,64,33,29.85,29.34,0,0,0,0.17
2013-11-20,38.1,29.7,22.8,14.5,3.7,-4.5,49,34,21,30.60,29.85,14,2,20,0.01
2013-11-21,42.4,23.3,22.8,40.0,7.4,6.6,91,50,49,30.91,29.91,0,0,2,0.00
2013-11-22,36.7,26.4,12.7,16.6,12.6,5.7,73,56,33,30.19,29.58,3,0,4,0.01
2013-11-23,39.4,23.5,14.2,21.0,13.5,7.1,77,66,44,29.99,29.76,0,0,2,0.22
2013-11-24,41.4,25.2,15.6,25.8,16.6,9.0,79,70,51,29.95,27.58,1,0,2,0.00
2013-11-25,41.2,28.4,20.5,27.9,20.5,15.3,80,72,56,30.03,29.26,0,0,2,0.01
2013-11-26,39.6,27.4,19.6,28.8,20.6,14.5,81,75,62,30.31,29.05,3,0,4,0.07
2013-11-27,42.6,27.9,18.3,30.2,20.9,11.6,82,75,59,29.49,29.06,0,0,2,0.12
2013-11-28,37.4,29.9,17.6,28.2,22.5,11.1,84,74,65,29.73,29.49,0,0,0,0.00
2013-11-29,37.4,33.6,27.5,28.2,27.3,22.2,86,78,69,29.93,29.69,0,0,0,0.00
2013-11-30,35.8,32.7,28.9,30.6,28.6,25.3,87,85,80,29.92,29.74,0,0,0,0.06
2013-12-1,41.0,36.2,33.1,39.1,33.0,29.6,94,88,85,29.74,29.14,0,0,0,0.15
2013-12-2,44.6,36.5,30.9,39.2,27.6,16.3,93,71,45,29.20,28.61,0,0,0,0.00
2013-12-3,34.5,27.6,21.6,16.8,7.5,1.9,55,43,26,29.63,29.14,0,0,2,0.00
2013-12-4,28.0,19.7,9.9,13.9,8.7,0.9,71,62,51,30.24,29.34,4,0,4,0.24
2013-12-5,23.5,17.1,9.3,12.0,6.4,-0.6,69,62,54,30.29,29.77,2,0,4,0.04
2013-12-6,21.6,10.9,3.2,2.7,-7.6,-18.6,65,45,24,30.38,29.88,15,3,18,0.01
2013-12-7,19.4,7.8,-0.4,-6.0,-11.2,-16.5,58,42,25,29.93,29.80,9,2,12,0.00
2013-12-8,17.6,8.2,-0.9,0.9,-5.0,-12.7,63,54,39,30.04,29.91,5,1,7,0.00
2013-12-9,20.3,17.2,12.4,3.4,0.4,-2.4,59,47,41,30.03,29.91,8,2,12,0.02
2013-12-10,26.8,15.3,7.9,8.3,3.1,-1.7,71,58,42,30.08,29.88,4,1,8,0.00
2013-12-11,24.8,20.3,10.9,17.3,11.4,3.3,78,68,61,30.18,29.94,9,1,13,0.00
2013-12-12,26.8,22.4,16.7,20.6,15.7,9.9,80,75,71,30.23,29.66,0,0,2,0.25
2013-12-13,36.7,28.3,22.8,26.8,22.1,17.5,81,77,65,30.24,29.80,0,0,0,0.19
2013-12-14,29.1,29.1,29.1,23.7,23.7,23.7,80,80,80,30.24,30.24,0,0,0,0.00
2013-12-15,39.0,32.0,29.1,33.7,26.8,0.9,85,81,78,30.24,29.88,0,0,0,0.01
2013-12-16,36.9,34.3,31.8,32.0,30.0,28.0,86,84,81,30.06,29.48,0,0,0,0.01
2013-12-17,33.1,31.3,28.8,29.6,28.1,25.7,89,88,85,29.66,29.14,0,0,0,0.01
2013-12-18,66.4,31.8,28.9,31.4,27.8,13.7,96,85,52,29.97,28.98,14,1,19,0.01
2013-12-19,31.7,24.7,18.3,18.4,14.9,11.8,83,67,46,30.26,29.96,12,2,18,0.00
2013-12-20,24.4,21.5,17.3,22.1,17.0,12.9,93,82,72,30.16,29.77,1,0,2,0.00
2013-12-21,30.6,24.3,22.1,21.8,20.7,19.5,91,86,69,30.19,30.13,0,0,1,0.00
2013-12-22,31.6,27.4,23.7,27.5,24.7,21.0,94,89,82,30.36,30.19,1,0,3,0.00
2013-12-23,37.4,30.6,27.3,35.9,29.5,26.5,98,96,92,30.36,30.02,4,0,6,0.07
2013-12-24,33.4,27.5,24.8,32.4,26.7,23.9,98,97,94,30.63,30.36,1,0,2,0.00
2013-12-25,33.4,25.6,15.8,29.8,24.3,14.7,98,95,85,30.63,30.48,1,0,1,0.00
2013-12-26,31.7,26.3,23.6,29.9,25.6,23.1,99,97,91,30.50,30.38,0,0,2,0.00
2013-12-27,28.1,24.2,20.5,27.0,23.3,19.3,99,97,94,30.39,30.08,3,0,4,0.00
2013-12-28,29.2,28.0,26.2,28.2,27.0,25.0,98,96,93,30.53,30.28,3,0,6,0.00
2013-12-29,32.6,28.6,25.4,30.0,27.0,24.5,98,94,85,30.52,30.29,3,0,6,0.00
2013-12-30,31.2,27.2,21.9,30.4,26.4,21.1,99,97,91,30.38,30.16,1,0,3,0.00
2013-12-31,37.9,32.5,30.6,33.0,30.7,29.5,97,93,81,30.39,30.14,1,0,2,0.00
2014-1-1,31.9,29.6,27.1,29.6,28.2,25.6,97,94,90,30.50,30.39,4,1,6,0.00
2014-1-2,36.7,32.9,29.7,34.3,31.5,28.8,97,94,91,30.40,29.75,2,0,5,0.00